sensor_id;sensor_type;location;lat;lon;timestamp;P1;durP1;ratioP1;P2;durP2;ratioP2
3698;SDS011;1865;50.918;7.092;2023-06-22T00:00:27;9.70;;;5.30;;
3698;SDS011;1865;50.918;7.092;2023-06-22T00:02:52;10.07;;;6.50;;
3698;SDS011;1865;50.918;7.092;2023-06-22T00:05:18;9.70;;;5.83;;
3698;SDS011;1865;50.918;7.092;2023-06-22T00:07:43;10.30;;;6.20;;
3698;SDS011;1865;50.918;7.092;2023-06-22T00:10:09;9.57;;;5.63;;
3698;SDS011;1865;50.918;7.092;2023-06-22T00:12:34;9.30;;;5.13;;
3698;SDS011;1865;50.918;7.092;2023-06-22T00:15:00;10.93;;;5.37;;
3698;SDS011;1865;50.918;7.092;2023-06-22T00:17:25;8.27;;;4.70;;
3698;SDS011;1865;50.918;7.092;2023-06-22T00:19:51;12.23;;;6.03;;
3698;SDS011;1865;50.918;7.092;2023-06-22T00:22:18;10.57;;;5.47;;
3698;SDS011;1865;50.918;7.092;2023-06-22T00:24:52;9.23;;;5.40;;
3698;SDS011;1865;50.918;7.092;2023-06-22T00:27:19;10.30;;;6.03;;
3698;SDS011;1865;50.918;7.092;2023-06-22T00:29:44;8.23;;;4.60;;
3698;SDS011;1865;50.918;7.092;2023-06-22T00:32:10;18.07;;;5.50;;
3698;SDS011;1865;50.918;7.092;2023-06-22T00:34:35;9.93;;;5.50;;
3698;SDS011;1865;50.918;7.092;2023-06-22T00:37:01;9.60;;;5.33;;
3698;SDS011;1865;50.918;7.092;2023-06-22T00:39:27;9.50;;;5.27;;
3698;SDS011;1865;50.918;7.092;2023-06-22T00:41:52;9.70;;;5.20;;
3698;SDS011;1865;50.918;7.092;2023-06-22T00:44:18;9.57;;;5.73;;
3698;SDS011;1865;50.918;7.092;2023-06-22T00:46:43;9.97;;;5.27;;
3698;SDS011;1865;50.918;7.092;2023-06-22T00:49:09;10.77;;;6.30;;
3698;SDS011;1865;50.918;7.092;2023-06-22T00:51:35;9.63;;;5.20;;
3698;SDS011;1865;50.918;7.092;2023-06-22T00:54:03;12.23;;;6.33;;
3698;SDS011;1865;50.918;7.092;2023-06-22T00:56:30;10.43;;;6.07;;
3698;SDS011;1865;50.918;7.092;2023-06-22T00:58:57;10.00;;;5.43;;
3698;SDS011;1865;50.918;7.092;2023-06-22T01:01:24;8.73;;;5.20;;
3698;SDS011;1865;50.918;7.092;2023-06-22T01:03:50;9.87;;;5.50;;
3698;SDS011;1865;50.918;7.092;2023-06-22T01:06:18;10.40;;;5.50;;
3698;SDS011;1865;50.918;7.092;2023-06-22T01:08:53;11.30;;;5.40;;
3698;SDS011;1865;50.918;7.092;2023-06-22T01:11:41;11.17;;;5.83;;
3698;SDS011;1865;50.918;7.092;2023-06-22T01:14:15;9.87;;;6.03;;
3698;SDS011;1865;50.918;7.092;2023-06-22T01:16:48;11.60;;;6.13;;
3698;SDS011;1865;50.918;7.092;2023-06-22T01:19:35;9.70;;;5.63;;
3698;SDS011;1865;50.918;7.092;2023-06-22T01:22:22;11.27;;;5.33;;
3698;SDS011;1865;50.918;7.092;2023-06-22T01:27:56;14.10;;;5.73;;
3698;SDS011;1865;50.918;7.092;2023-06-22T01:30:30;9.17;;;5.67;;
3698;SDS011;1865;50.918;7.092;2023-06-22T01:32:59;11.90;;;5.50;;
3698;SDS011;1865;50.918;7.092;2023-06-22T01:35:26;10.93;;;6.00;;
3698;SDS011;1865;50.918;7.092;2023-06-22T01:37:52;10.30;;;5.77;;
3698;SDS011;1865;50.918;7.092;2023-06-22T01:40:18;11.33;;;6.17;;
3698;SDS011;1865;50.918;7.092;2023-06-22T01:42:45;9.90;;;5.37;;
3698;SDS011;1865;50.918;7.092;2023-06-22T01:45:12;10.90;;;6.40;;
3698;SDS011;1865;50.918;7.092;2023-06-22T01:47:38;9.50;;;5.73;;
3698;SDS011;1865;50.918;7.092;2023-06-22T01:50:04;10.37;;;5.50;;
3698;SDS011;1865;50.918;7.092;2023-06-22T01:52:30;11.30;;;5.90;;
3698;SDS011;1865;50.918;7.092;2023-06-22T01:54:58;9.37;;;5.23;;
3698;SDS011;1865;50.918;7.092;2023-06-22T01:57:24;10.03;;;6.00;;
3698;SDS011;1865;50.918;7.092;2023-06-22T02:00:03;10.70;;;5.40;;
3698;SDS011;1865;50.918;7.092;2023-06-22T02:02:37;10.27;;;5.43;;
3698;SDS011;1865;50.918;7.092;2023-06-22T02:05:11;10.87;;;5.80;;
3698;SDS011;1865;50.918;7.092;2023-06-22T02:07:47;10.10;;;6.00;;
3698;SDS011;1865;50.918;7.092;2023-06-22T02:10:21;9.13;;;5.43;;
3698;SDS011;1865;50.918;7.092;2023-06-22T02:12:49;10.60;;;5.70;;
3698;SDS011;1865;50.918;7.092;2023-06-22T02:15:16;10.63;;;5.90;;
3698;SDS011;1865;50.918;7.092;2023-06-22T02:17:42;11.00;;;5.73;;
3698;SDS011;1865;50.918;7.092;2023-06-22T02:20:14;9.27;;;5.93;;
3698;SDS011;1865;50.918;7.092;2023-06-22T02:22:40;11.60;;;6.33;;
3698;SDS011;1865;50.918;7.092;2023-06-22T02:25:06;10.60;;;6.70;;
3698;SDS011;1865;50.918;7.092;2023-06-22T02:27:32;10.50;;;6.80;;
3698;SDS011;1865;50.918;7.092;2023-06-22T02:29:57;10.63;;;6.60;;
3698;SDS011;1865;50.918;7.092;2023-06-22T02:32:23;10.60;;;6.20;;
3698;SDS011;1865;50.918;7.092;2023-06-22T02:34:48;9.47;;;6.20;;
3698;SDS011;1865;50.918;7.092;2023-06-22T02:37:14;12.77;;;5.93;;
3698;SDS011;1865;50.918;7.092;2023-06-22T02:39:40;9.93;;;6.00;;
3698;SDS011;1865;50.918;7.092;2023-06-22T02:42:05;10.67;;;6.67;;
3698;SDS011;1865;50.918;7.092;2023-06-22T02:44:31;9.87;;;6.00;;
3698;SDS011;1865;50.918;7.092;2023-06-22T02:46:57;11.47;;;6.30;;
3698;SDS011;1865;50.918;7.092;2023-06-22T02:49:23;11.50;;;6.70;;
3698;SDS011;1865;50.918;7.092;2023-06-22T02:51:48;10.50;;;6.30;;
3698;SDS011;1865;50.918;7.092;2023-06-22T02:54:14;11.70;;;6.93;;
3698;SDS011;1865;50.918;7.092;2023-06-22T02:56:40;10.30;;;6.10;;
3698;SDS011;1865;50.918;7.092;2023-06-22T02:59:05;9.90;;;6.07;;
3698;SDS011;1865;50.918;7.092;2023-06-22T03:01:31;9.93;;;6.07;;
3698;SDS011;1865;50.918;7.092;2023-06-22T03:04:04;12.90;;;6.53;;
3698;SDS011;1865;50.918;7.092;2023-06-22T03:06:33;9.90;;;6.00;;
3698;SDS011;1865;50.918;7.092;2023-06-22T03:08:59;12.13;;;6.67;;
3698;SDS011;1865;50.918;7.092;2023-06-22T03:11:26;10.77;;;6.70;;
3698;SDS011;1865;50.918;7.092;2023-06-22T03:13:52;11.63;;;6.00;;
3698;SDS011;1865;50.918;7.092;2023-06-22T03:16:18;10.23;;;6.60;;
3698;SDS011;1865;50.918;7.092;2023-06-22T03:18:44;10.50;;;6.90;;
3698;SDS011;1865;50.918;7.092;2023-06-22T03:21:10;12.03;;;6.37;;
3698;SDS011;1865;50.918;7.092;2023-06-22T03:23:35;13.37;;;6.77;;
3698;SDS011;1865;50.918;7.092;2023-06-22T03:26:01;11.20;;;6.73;;
3698;SDS011;1865;50.918;7.092;2023-06-22T03:28:27;10.87;;;6.53;;
3698;SDS011;1865;50.918;7.092;2023-06-22T03:30:52;12.60;;;6.57;;
3698;SDS011;1865;50.918;7.092;2023-06-22T03:33:18;11.87;;;7.30;;
3698;SDS011;1865;50.918;7.092;2023-06-22T03:35:43;11.03;;;6.97;;
3698;SDS011;1865;50.918;7.092;2023-06-22T03:38:09;11.63;;;7.50;;
3698;SDS011;1865;50.918;7.092;2023-06-22T03:40:34;9.97;;;6.87;;
3698;SDS011;1865;50.918;7.092;2023-06-22T03:43:00;10.80;;;7.13;;
3698;SDS011;1865;50.918;7.092;2023-06-22T03:45:25;10.53;;;7.40;;
3698;SDS011;1865;50.918;7.092;2023-06-22T03:47:51;11.10;;;7.17;;
3698;SDS011;1865;50.918;7.092;2023-06-22T03:50:16;10.90;;;6.60;;
3698;SDS011;1865;50.918;7.092;2023-06-22T03:52:42;11.63;;;6.10;;
3698;SDS011;1865;50.918;7.092;2023-06-22T03:55:07;10.80;;;7.53;;
3698;SDS011;1865;50.918;7.092;2023-06-22T03:57:34;12.10;;;7.90;;
3698;SDS011;1865;50.918;7.092;2023-06-22T04:00:01;10.23;;;6.70;;
3698;SDS011;1865;50.918;7.092;2023-06-22T04:02:30;11.07;;;7.17;;
3698;SDS011;1865;50.918;7.092;2023-06-22T04:04:56;11.90;;;7.40;;
3698;SDS011;1865;50.918;7.092;2023-06-22T04:07:21;14.10;;;7.77;;
3698;SDS011;1865;50.918;7.092;2023-06-22T04:09:47;11.50;;;6.93;;
3698;SDS011;1865;50.918;7.092;2023-06-22T04:12:12;12.47;;;7.47;;
3698;SDS011;1865;50.918;7.092;2023-06-22T04:14:38;10.37;;;7.30;;
3698;SDS011;1865;50.918;7.092;2023-06-22T04:17:04;9.13;;;6.40;;
3698;SDS011;1865;50.918;7.092;2023-06-22T04:19:29;11.37;;;6.83;;
3698;SDS011;1865;50.918;7.092;2023-06-22T04:21:55;11.83;;;6.73;;
3698;SDS011;1865;50.918;7.092;2023-06-22T04:24:20;12.50;;;7.17;;
3698;SDS011;1865;50.918;7.092;2023-06-22T04:26:46;12.33;;;6.27;;
3698;SDS011;1865;50.918;7.092;2023-06-22T04:29:12;13.67;;;7.07;;
3698;SDS011;1865;50.918;7.092;2023-06-22T04:31:38;12.07;;;8.17;;
3698;SDS011;1865;50.918;7.092;2023-06-22T04:34:04;12.73;;;7.10;;
3698;SDS011;1865;50.918;7.092;2023-06-22T04:36:37;11.73;;;7.40;;
3698;SDS011;1865;50.918;7.092;2023-06-22T04:39:06;10.63;;;7.30;;
3698;SDS011;1865;50.918;7.092;2023-06-22T04:41:34;11.30;;;7.30;;
3698;SDS011;1865;50.918;7.092;2023-06-22T04:44:17;11.37;;;7.97;;
3698;SDS011;1865;50.918;7.092;2023-06-22T04:46:49;11.97;;;7.50;;
3698;SDS011;1865;50.918;7.092;2023-06-22T04:49:33;11.63;;;7.10;;
3698;SDS011;1865;50.918;7.092;2023-06-22T04:52:03;11.23;;;6.80;;
3698;SDS011;1865;50.918;7.092;2023-06-22T04:54:30;13.83;;;7.40;;
3698;SDS011;1865;50.918;7.092;2023-06-22T04:57:00;13.77;;;8.20;;
3698;SDS011;1865;50.918;7.092;2023-06-22T04:59:26;12.60;;;8.60;;
3698;SDS011;1865;50.918;7.092;2023-06-22T05:01:55;14.23;;;7.67;;
3698;SDS011;1865;50.918;7.092;2023-06-22T05:04:21;12.97;;;7.67;;
3698;SDS011;1865;50.918;7.092;2023-06-22T05:06:51;12.80;;;8.40;;
3698;SDS011;1865;50.918;7.092;2023-06-22T05:09:17;13.03;;;8.60;;
3698;SDS011;1865;50.918;7.092;2023-06-22T05:11:43;12.67;;;8.10;;
3698;SDS011;1865;50.918;7.092;2023-06-22T05:14:09;10.90;;;7.80;;
3698;SDS011;1865;50.918;7.092;2023-06-22T05:16:36;13.37;;;8.40;;
3698;SDS011;1865;50.918;7.092;2023-06-22T05:19:01;13.63;;;8.27;;
3698;SDS011;1865;50.918;7.092;2023-06-22T05:21:28;15.00;;;8.20;;
3698;SDS011;1865;50.918;7.092;2023-06-22T05:23:55;10.63;;;7.93;;
3698;SDS011;1865;50.918;7.092;2023-06-22T05:26:25;12.17;;;8.20;;
3698;SDS011;1865;50.918;7.092;2023-06-22T05:28:52;10.90;;;7.00;;
3698;SDS011;1865;50.918;7.092;2023-06-22T05:31:18;12.77;;;8.67;;
3698;SDS011;1865;50.918;7.092;2023-06-22T05:33:44;13.90;;;9.27;;
3698;SDS011;1865;50.918;7.092;2023-06-22T05:36:11;12.63;;;8.83;;
3698;SDS011;1865;50.918;7.092;2023-06-22T05:38:37;12.73;;;9.10;;
3698;SDS011;1865;50.918;7.092;2023-06-22T05:41:04;10.77;;;8.07;;
3698;SDS011;1865;50.918;7.092;2023-06-22T05:43:30;17.47;;;8.73;;
3698;SDS011;1865;50.918;7.092;2023-06-22T05:45:55;18.10;;;9.20;;
3698;SDS011;1865;50.918;7.092;2023-06-22T05:48:21;12.17;;;8.53;;
3698;SDS011;1865;50.918;7.092;2023-06-22T05:50:47;11.60;;;8.27;;
3698;SDS011;1865;50.918;7.092;2023-06-22T05:53:12;13.53;;;8.90;;
3698;SDS011;1865;50.918;7.092;2023-06-22T05:55:38;12.20;;;7.80;;
3698;SDS011;1865;50.918;7.092;2023-06-22T05:58:03;13.23;;;8.13;;
3698;SDS011;1865;50.918;7.092;2023-06-22T06:00:29;11.50;;;8.17;;
3698;SDS011;1865;50.918;7.092;2023-06-22T06:02:55;13.07;;;9.17;;
3698;SDS011;1865;50.918;7.092;2023-06-22T06:05:21;11.97;;;8.07;;
3698;SDS011;1865;50.918;7.092;2023-06-22T06:07:47;14.07;;;8.37;;
3698;SDS011;1865;50.918;7.092;2023-06-22T06:10:13;14.03;;;9.07;;
3698;SDS011;1865;50.918;7.092;2023-06-22T06:12:39;12.60;;;7.80;;
3698;SDS011;1865;50.918;7.092;2023-06-22T06:15:04;12.67;;;8.03;;
3698;SDS011;1865;50.918;7.092;2023-06-22T06:17:30;10.77;;;7.50;;
3698;SDS011;1865;50.918;7.092;2023-06-22T06:19:56;12.47;;;8.30;;
3698;SDS011;1865;50.918;7.092;2023-06-22T06:22:23;13.10;;;8.30;;
3698;SDS011;1865;50.918;7.092;2023-06-22T06:24:49;12.20;;;8.27;;
3698;SDS011;1865;50.918;7.092;2023-06-22T06:27:14;15.87;;;7.90;;
3698;SDS011;1865;50.918;7.092;2023-06-22T06:29:41;12.37;;;7.53;;
3698;SDS011;1865;50.918;7.092;2023-06-22T06:32:06;12.23;;;7.80;;
3698;SDS011;1865;50.918;7.092;2023-06-22T06:34:32;12.83;;;8.37;;
3698;SDS011;1865;50.918;7.092;2023-06-22T06:36:58;11.60;;;7.67;;
3698;SDS011;1865;50.918;7.092;2023-06-22T06:39:23;10.93;;;7.83;;
3698;SDS011;1865;50.918;7.092;2023-06-22T06:41:50;12.13;;;8.00;;
3698;SDS011;1865;50.918;7.092;2023-06-22T06:44:15;13.60;;;7.87;;
3698;SDS011;1865;50.918;7.092;2023-06-22T06:46:41;12.10;;;7.40;;
3698;SDS011;1865;50.918;7.092;2023-06-22T06:49:07;13.70;;;7.75;;
3698;SDS011;1865;50.918;7.092;2023-06-22T06:51:33;12.03;;;7.00;;
3698;SDS011;1865;50.918;7.092;2023-06-22T06:53:58;11.60;;;7.70;;
3698;SDS011;1865;50.918;7.092;2023-06-22T06:56:24;13.83;;;7.53;;
3698;SDS011;1865;50.918;7.092;2023-06-22T06:58:49;11.57;;;7.57;;
3698;SDS011;1865;50.918;7.092;2023-06-22T07:01:16;14.67;;;7.73;;
3698;SDS011;1865;50.918;7.092;2023-06-22T07:03:41;13.43;;;7.30;;
3698;SDS011;1865;50.918;7.092;2023-06-22T07:06:08;15.93;;;7.20;;
3698;SDS011;1865;50.918;7.092;2023-06-22T07:08:34;14.87;;;7.97;;
3698;SDS011;1865;50.918;7.092;2023-06-22T07:11:01;11.50;;;7.93;;
3698;SDS011;1865;50.918;7.092;2023-06-22T07:13:27;11.17;;;7.43;;
3698;SDS011;1865;50.918;7.092;2023-06-22T07:15:52;13.40;;;7.00;;
3698;SDS011;1865;50.918;7.092;2023-06-22T07:18:19;11.93;;;7.30;;
3698;SDS011;1865;50.918;7.092;2023-06-22T07:20:44;12.00;;;7.20;;
3698;SDS011;1865;50.918;7.092;2023-06-22T07:23:10;14.80;;;7.30;;
3698;SDS011;1865;50.918;7.092;2023-06-22T07:25:36;11.30;;;6.90;;
3698;SDS011;1865;50.918;7.092;2023-06-22T07:28:02;11.43;;;7.10;;
3698;SDS011;1865;50.918;7.092;2023-06-22T07:30:29;21.30;;;7.30;;
3698;SDS011;1865;50.918;7.092;2023-06-22T07:32:56;14.73;;;7.80;;
3698;SDS011;1865;50.918;7.092;2023-06-22T07:35:23;12.23;;;7.33;;
3698;SDS011;1865;50.918;7.092;2023-06-22T07:37:48;13.00;;;7.70;;
3698;SDS011;1865;50.918;7.092;2023-06-22T07:40:14;10.63;;;6.63;;
3698;SDS011;1865;50.918;7.092;2023-06-22T07:42:40;12.30;;;7.00;;
3698;SDS011;1865;50.918;7.092;2023-06-22T07:45:05;12.37;;;7.60;;
3698;SDS011;1865;50.918;7.092;2023-06-22T07:47:33;11.63;;;7.50;;
3698;SDS011;1865;50.918;7.092;2023-06-22T07:50:00;12.53;;;7.67;;
3698;SDS011;1865;50.918;7.092;2023-06-22T07:52:26;13.17;;;7.23;;
3698;SDS011;1865;50.918;7.092;2023-06-22T07:54:52;13.77;;;7.53;;
3698;SDS011;1865;50.918;7.092;2023-06-22T07:57:18;12.93;;;7.37;;
3698;SDS011;1865;50.918;7.092;2023-06-22T07:59:43;11.70;;;7.07;;
3698;SDS011;1865;50.918;7.092;2023-06-22T08:02:09;14.40;;;8.40;;
3698;SDS011;1865;50.918;7.092;2023-06-22T08:04:35;15.83;;;7.90;;
3698;SDS011;1865;50.918;7.092;2023-06-22T08:07:01;11.73;;;6.90;;
3698;SDS011;1865;50.918;7.092;2023-06-22T08:09:30;13.97;;;8.20;;
3698;SDS011;1865;50.918;7.092;2023-06-22T08:11:57;13.37;;;7.30;;
3698;SDS011;1865;50.918;7.092;2023-06-22T08:14:24;11.63;;;6.70;;
3698;SDS011;1865;50.918;7.092;2023-06-22T08:16:51;12.97;;;7.00;;
3698;SDS011;1865;50.918;7.092;2023-06-22T08:19:16;10.50;;;6.50;;
3698;SDS011;1865;50.918;7.092;2023-06-22T08:21:42;12.67;;;6.97;;
3698;SDS011;1865;50.918;7.092;2023-06-22T08:24:08;11.57;;;7.27;;
3698;SDS011;1865;50.918;7.092;2023-06-22T08:26:34;11.43;;;6.87;;
3698;SDS011;1865;50.918;7.092;2023-06-22T08:29:04;12.20;;;7.17;;
3698;SDS011;1865;50.918;7.092;2023-06-22T08:31:30;11.53;;;6.90;;
3698;SDS011;1865;50.918;7.092;2023-06-22T08:33:58;12.13;;;6.87;;
3698;SDS011;1865;50.918;7.092;2023-06-22T08:36:24;12.37;;;7.77;;
3698;SDS011;1865;50.918;7.092;2023-06-22T08:38:49;10.30;;;6.50;;
3698;SDS011;1865;50.918;7.092;2023-06-22T08:41:16;10.43;;;6.20;;
3698;SDS011;1865;50.918;7.092;2023-06-22T08:43:42;12.57;;;7.00;;
3698;SDS011;1865;50.918;7.092;2023-06-22T08:46:09;11.80;;;6.40;;
3698;SDS011;1865;50.918;7.092;2023-06-22T08:48:35;10.83;;;6.50;;
3698;SDS011;1865;50.918;7.092;2023-06-22T08:51:00;10.90;;;6.73;;
3698;SDS011;1865;50.918;7.092;2023-06-22T08:53:26;11.07;;;6.53;;
3698;SDS011;1865;50.918;7.092;2023-06-22T08:55:51;11.60;;;6.50;;
3698;SDS011;1865;50.918;7.092;2023-06-22T08:58:17;13.60;;;6.90;;
3698;SDS011;1865;50.918;7.092;2023-06-22T09:00:43;10.50;;;6.67;;
3698;SDS011;1865;50.918;7.092;2023-06-22T09:03:08;9.40;;;5.60;;
3698;SDS011;1865;50.918;7.092;2023-06-22T09:05:34;10.97;;;7.00;;
3698;SDS011;1865;50.918;7.092;2023-06-22T09:08:00;11.00;;;6.40;;
3698;SDS011;1865;50.918;7.092;2023-06-22T09:10:25;11.10;;;6.60;;
3698;SDS011;1865;50.918;7.092;2023-06-22T09:12:51;12.63;;;7.03;;
3698;SDS011;1865;50.918;7.092;2023-06-22T09:15:16;15.33;;;6.63;;
3698;SDS011;1865;50.918;7.092;2023-06-22T09:17:42;12.70;;;6.87;;
3698;SDS011;1865;50.918;7.092;2023-06-22T09:20:08;11.87;;;6.80;;
3698;SDS011;1865;50.918;7.092;2023-06-22T09:22:35;12.97;;;7.70;;
3698;SDS011;1865;50.918;7.092;2023-06-22T09:25:01;12.73;;;7.23;;
3698;SDS011;1865;50.918;7.092;2023-06-22T09:27:28;13.20;;;6.37;;
3698;SDS011;1865;50.918;7.092;2023-06-22T09:29:53;12.00;;;6.90;;
3698;SDS011;1865;50.918;7.092;2023-06-22T09:32:19;10.37;;;6.40;;
3698;SDS011;1865;50.918;7.092;2023-06-22T09:34:44;12.87;;;6.97;;
3698;SDS011;1865;50.918;7.092;2023-06-22T09:37:10;11.57;;;6.63;;
3698;SDS011;1865;50.918;7.092;2023-06-22T09:39:35;10.00;;;6.20;;
3698;SDS011;1865;50.918;7.092;2023-06-22T09:42:01;11.30;;;7.23;;
3698;SDS011;1865;50.918;7.092;2023-06-22T09:44:27;13.70;;;6.70;;
3698;SDS011;1865;50.918;7.092;2023-06-22T09:46:53;12.27;;;6.60;;
3698;SDS011;1865;50.918;7.092;2023-06-22T09:49:18;12.93;;;6.87;;
3698;SDS011;1865;50.918;7.092;2023-06-22T09:51:44;11.60;;;7.10;;
3698;SDS011;1865;50.918;7.092;2023-06-22T09:54:10;11.40;;;6.60;;
3698;SDS011;1865;50.918;7.092;2023-06-22T09:56:35;12.03;;;6.80;;
3698;SDS011;1865;50.918;7.092;2023-06-22T09:59:02;10.23;;;5.77;;
3698;SDS011;1865;50.918;7.092;2023-06-22T10:01:28;11.30;;;7.00;;
3698;SDS011;1865;50.918;7.092;2023-06-22T10:03:53;12.10;;;6.87;;
3698;SDS011;1865;50.918;7.092;2023-06-22T10:06:21;12.30;;;6.97;;
3698;SDS011;1865;50.918;7.092;2023-06-22T10:08:47;13.33;;;6.53;;
3698;SDS011;1865;50.918;7.092;2023-06-22T10:11:13;11.83;;;6.30;;
3698;SDS011;1865;50.918;7.092;2023-06-22T10:13:39;16.10;;;8.23;;
3698;SDS011;1865;50.918;7.092;2023-06-22T10:16:04;15.07;;;7.40;;
3698;SDS011;1865;50.918;7.092;2023-06-22T10:18:30;15.63;;;8.57;;
3698;SDS011;1865;50.918;7.092;2023-06-22T10:20:55;12.93;;;7.23;;
3698;SDS011;1865;50.918;7.092;2023-06-22T10:23:21;12.17;;;6.80;;
3698;SDS011;1865;50.918;7.092;2023-06-22T10:25:47;12.40;;;7.30;;
3698;SDS011;1865;50.918;7.092;2023-06-22T10:28:13;16.40;;;6.67;;
3698;SDS011;1865;50.918;7.092;2023-06-22T10:30:39;12.50;;;7.10;;
3698;SDS011;1865;50.918;7.092;2023-06-22T10:33:08;12.93;;;7.30;;
3698;SDS011;1865;50.918;7.092;2023-06-22T10:35:35;12.27;;;7.07;;
3698;SDS011;1865;50.918;7.092;2023-06-22T10:38:02;14.03;;;7.57;;
3698;SDS011;1865;50.918;7.092;2023-06-22T10:40:28;14.30;;;7.70;;
3698;SDS011;1865;50.918;7.092;2023-06-22T10:42:54;13.83;;;7.37;;
3698;SDS011;1865;50.918;7.092;2023-06-22T10:45:20;14.20;;;7.60;;
3698;SDS011;1865;50.918;7.092;2023-06-22T10:47:45;20.93;;;7.47;;
3698;SDS011;1865;50.918;7.092;2023-06-22T10:50:11;18.17;;;8.33;;
3698;SDS011;1865;50.918;7.092;2023-06-22T10:52:37;13.40;;;8.50;;
3698;SDS011;1865;50.918;7.092;2023-06-22T10:55:02;23.83;;;8.57;;
3698;SDS011;1865;50.918;7.092;2023-06-22T10:57:29;16.67;;;10.87;;
3698;SDS011;1865;50.918;7.092;2023-06-22T10:59:54;17.50;;;8.83;;
3698;SDS011;1865;50.918;7.092;2023-06-22T11:02:20;22.70;;;11.60;;
3698;SDS011;1865;50.918;7.092;2023-06-22T11:04:45;22.40;;;11.50;;
3698;SDS011;1865;50.918;7.092;2023-06-22T11:07:12;19.23;;;10.73;;
3698;SDS011;1865;50.918;7.092;2023-06-22T11:09:38;14.17;;;10.20;;
3698;SDS011;1865;50.918;7.092;2023-06-22T11:12:04;17.17;;;10.50;;
3698;SDS011;1865;50.918;7.092;2023-06-22T11:14:30;21.60;;;12.00;;
3698;SDS011;1865;50.918;7.092;2023-06-22T11:16:56;19.83;;;11.80;;
3698;SDS011;1865;50.918;7.092;2023-06-22T11:19:22;24.90;;;13.57;;
3698;SDS011;1865;50.918;7.092;2023-06-22T11:21:47;44.80;;;17.63;;
3698;SDS011;1865;50.918;7.092;2023-06-22T11:24:13;27.20;;;14.80;;
3698;SDS011;1865;50.918;7.092;2023-06-22T11:26:38;30.90;;;15.63;;
3698;SDS011;1865;50.918;7.092;2023-06-22T11:29:04;29.43;;;16.63;;
3698;SDS011;1865;50.918;7.092;2023-06-22T11:31:33;27.73;;;14.90;;
3698;SDS011;1865;50.918;7.092;2023-06-22T11:34:00;23.07;;;14.10;;
3698;SDS011;1865;50.918;7.092;2023-06-22T11:36:26;26.87;;;14.87;;
3698;SDS011;1865;50.918;7.092;2023-06-22T11:38:52;23.23;;;14.17;;
3698;SDS011;1865;50.918;7.092;2023-06-22T11:41:17;26.07;;;15.43;;
3698;SDS011;1865;50.918;7.092;2023-06-22T11:43:43;25.93;;;14.97;;
3698;SDS011;1865;50.918;7.092;2023-06-22T11:46:10;23.17;;;14.00;;
3698;SDS011;1865;50.918;7.092;2023-06-22T11:48:35;24.87;;;14.67;;
3698;SDS011;1865;50.918;7.092;2023-06-22T11:51:01;31.10;;;15.90;;
3698;SDS011;1865;50.918;7.092;2023-06-22T11:53:28;17.60;;;12.23;;
3698;SDS011;1865;50.918;7.092;2023-06-22T11:55:54;18.33;;;14.30;;
3698;SDS011;1865;50.918;7.092;2023-06-22T11:58:20;21.10;;;14.37;;
3698;SDS011;1865;50.918;7.092;2023-06-22T12:00:46;24.47;;;13.20;;
3698;SDS011;1865;50.918;7.092;2023-06-22T12:03:11;19.87;;;12.90;;
3698;SDS011;1865;50.918;7.092;2023-06-22T12:05:37;21.93;;;12.37;;
3698;SDS011;1865;50.918;7.092;2023-06-22T12:08:03;21.20;;;12.87;;
3698;SDS011;1865;50.918;7.092;2023-06-22T12:10:29;19.10;;;12.77;;
3698;SDS011;1865;50.918;7.092;2023-06-22T12:12:55;17.60;;;11.27;;
3698;SDS011;1865;50.918;7.092;2023-06-22T12:15:20;17.23;;;11.30;;
3698;SDS011;1865;50.918;7.092;2023-06-22T12:17:46;19.07;;;13.10;;
3698;SDS011;1865;50.918;7.092;2023-06-22T12:20:13;17.20;;;11.40;;
3698;SDS011;1865;50.918;7.092;2023-06-22T12:22:38;14.57;;;11.80;;
3698;SDS011;1865;50.918;7.092;2023-06-22T12:25:06;22.13;;;16.20;;
3698;SDS011;1865;50.918;7.092;2023-06-22T12:27:32;19.13;;;13.93;;
3698;SDS011;1865;50.918;7.092;2023-06-22T12:29:57;21.60;;;14.20;;
3698;SDS011;1865;50.918;7.092;2023-06-22T12:32:23;16.30;;;12.90;;
3698;SDS011;1865;50.918;7.092;2023-06-22T12:34:49;17.83;;;13.47;;
3698;SDS011;1865;50.918;7.092;2023-06-22T12:39:49;18.40;;;13.57;;
3698;SDS011;1865;50.918;7.092;2023-06-22T12:42:15;17.00;;;12.40;;
3698;SDS011;1865;50.918;7.092;2023-06-22T12:44:41;17.40;;;12.97;;
3698;SDS011;1865;50.918;7.092;2023-06-22T12:47:07;16.93;;;13.03;;
3698;SDS011;1865;50.918;7.092;2023-06-22T12:49:36;19.70;;;13.60;;
3698;SDS011;1865;50.918;7.092;2023-06-22T12:52:02;18.53;;;12.43;;
3698;SDS011;1865;50.918;7.092;2023-06-22T12:54:28;17.67;;;13.10;;
3698;SDS011;1865;50.918;7.092;2023-06-22T12:56:54;16.93;;;11.47;;
3698;SDS011;1865;50.918;7.092;2023-06-22T12:59:20;13.47;;;10.57;;
3698;SDS011;1865;50.918;7.092;2023-06-22T13:01:46;18.00;;;11.50;;
3698;SDS011;1865;50.918;7.092;2023-06-22T13:04:12;17.20;;;11.23;;
3698;SDS011;1865;50.918;7.092;2023-06-22T13:06:40;14.50;;;10.07;;
3698;SDS011;1865;50.918;7.092;2023-06-22T13:09:06;15.27;;;10.50;;
3698;SDS011;1865;50.918;7.092;2023-06-22T13:11:32;17.40;;;10.80;;
3698;SDS011;1865;50.918;7.092;2023-06-22T13:13:57;15.20;;;9.80;;
3698;SDS011;1865;50.918;7.092;2023-06-22T13:16:23;16.00;;;10.80;;
3698;SDS011;1865;50.918;7.092;2023-06-22T13:18:48;14.53;;;10.07;;
3698;SDS011;1865;50.918;7.092;2023-06-22T13:21:14;34.80;;;17.07;;
3698;SDS011;1865;50.918;7.092;2023-06-22T13:23:39;18.30;;;9.50;;
3698;SDS011;1865;50.918;7.092;2023-06-22T13:26:05;12.80;;;8.87;;
3698;SDS011;1865;50.918;7.092;2023-06-22T13:28:30;14.07;;;8.67;;
3698;SDS011;1865;50.918;7.092;2023-06-22T13:30:56;13.40;;;7.90;;
3698;SDS011;1865;50.918;7.092;2023-06-22T13:33:22;11.63;;;6.63;;
3698;SDS011;1865;50.918;7.092;2023-06-22T13:35:48;12.77;;;7.10;;
3698;SDS011;1865;50.918;7.092;2023-06-22T13:38:13;13.93;;;7.50;;
3698;SDS011;1865;50.918;7.092;2023-06-22T13:40:39;10.37;;;5.70;;
3698;SDS011;1865;50.918;7.092;2023-06-22T13:43:04;12.57;;;5.77;;
3698;SDS011;1865;50.918;7.092;2023-06-22T13:45:30;9.97;;;5.87;;
3698;SDS011;1865;50.918;7.092;2023-06-22T13:47:56;9.53;;;5.20;;
3698;SDS011;1865;50.918;7.092;2023-06-22T13:50:22;13.23;;;5.80;;
3698;SDS011;1865;50.918;7.092;2023-06-22T13:52:47;7.93;;;4.13;;
3698;SDS011;1865;50.918;7.092;2023-06-22T13:55:13;8.90;;;5.10;;
3698;SDS011;1865;50.918;7.092;2023-06-22T13:57:39;9.63;;;5.00;;
3698;SDS011;1865;50.918;7.092;2023-06-22T14:00:05;7.97;;;4.13;;
3698;SDS011;1865;50.918;7.092;2023-06-22T14:02:32;8.50;;;4.27;;
3698;SDS011;1865;50.918;7.092;2023-06-22T14:04:58;13.73;;;4.30;;
3698;SDS011;1865;50.918;7.092;2023-06-22T14:07:24;8.10;;;4.07;;
3698;SDS011;1865;50.918;7.092;2023-06-22T14:09:49;8.70;;;3.90;;
3698;SDS011;1865;50.918;7.092;2023-06-22T14:12:15;8.07;;;3.97;;
3698;SDS011;1865;50.918;7.092;2023-06-22T14:14:42;8.20;;;4.30;;
3698;SDS011;1865;50.918;7.092;2023-06-22T14:17:08;9.87;;;5.33;;
3698;SDS011;1865;50.918;7.092;2023-06-22T14:19:34;9.30;;;4.60;;
3698;SDS011;1865;50.918;7.092;2023-06-22T14:22:00;10.93;;;6.23;;
3698;SDS011;1865;50.918;7.092;2023-06-22T14:24:25;10.50;;;5.40;;
3698;SDS011;1865;50.918;7.092;2023-06-22T14:26:51;11.00;;;6.43;;
3698;SDS011;1865;50.918;7.092;2023-06-22T14:29:17;10.60;;;5.90;;
3698;SDS011;1865;50.918;7.092;2023-06-22T14:31:44;14.90;;;6.47;;
3698;SDS011;1865;50.918;7.092;2023-06-22T14:34:11;12.70;;;6.13;;
3698;SDS011;1865;50.918;7.092;2023-06-22T14:36:36;10.40;;;6.17;;
3698;SDS011;1865;50.918;7.092;2023-06-22T14:39:02;12.93;;;6.40;;
3698;SDS011;1865;50.918;7.092;2023-06-22T14:41:28;11.53;;;6.77;;
3698;SDS011;1865;50.918;7.092;2023-06-22T14:43:55;9.60;;;6.20;;
3698;SDS011;1865;50.918;7.092;2023-06-22T14:46:20;12.53;;;6.73;;
3698;SDS011;1865;50.918;7.092;2023-06-22T14:48:46;15.33;;;7.57;;
3698;SDS011;1865;50.918;7.092;2023-06-22T14:51:11;17.30;;;8.27;;
3698;SDS011;1865;50.918;7.092;2023-06-22T14:53:38;19.90;;;7.83;;
3698;SDS011;1865;50.918;7.092;2023-06-22T14:56:03;19.90;;;8.20;;
3698;SDS011;1865;50.918;7.092;2023-06-22T14:58:30;25.13;;;12.60;;
3698;SDS011;1865;50.918;7.092;2023-06-22T15:00:58;29.50;;;13.33;;